createdAt,value
2022-10-24T00:00:02.994Z,970.62
2022-10-24T00:01:03.244Z,970.65
2022-10-24T00:02:03.472Z,970.69
2022-10-24T00:03:03.754Z,970.74
2022-10-24T00:05:05.915Z,970.69
2022-10-24T00:06:04.593Z,970.71
2022-10-24T00:07:04.863Z,970.71
2022-10-24T00:08:05.105Z,970.72
2022-10-24T00:09:05.354Z,970.74
2022-10-24T00:10:05.596Z,970.77
2022-10-24T00:11:05.847Z,970.78
2022-10-24T00:12:06.085Z,970.81
2022-10-24T00:13:06.326Z,970.82
2022-10-24T00:14:06.565Z,970.84
2022-10-24T00:15:07.625Z,970.87
2022-10-24T00:16:07.045Z,970.88
2022-10-24T00:17:07.286Z,970.89
2022-10-24T00:18:07.529Z,970.90
2022-10-24T00:19:07.767Z,970.88
2022-10-24T00:20:08.818Z,970.94
2022-10-24T00:21:08.246Z,970.95
2022-10-24T00:22:08.478Z,970.91
2022-10-24T00:23:08.728Z,970.92
2022-10-24T00:24:08.969Z,970.91
2022-10-24T00:25:09.228Z,970.87
2022-10-24T00:26:09.461Z,970.89
2022-10-24T00:27:09.712Z,970.97
2022-10-24T00:28:09.950Z,970.97
2022-10-24T00:29:10.188Z,970.92
2022-10-24T00:30:10.440Z,970.98
2022-10-24T00:31:10.688Z,971.04
2022-10-24T00:32:10.921Z,971.06
2022-10-24T00:33:11.161Z,971.06
2022-10-24T00:34:11.402Z,971.04
2022-10-24T00:35:12.945Z,971.02
2022-10-24T00:36:12.033Z,971.01
2022-10-24T00:37:12.311Z,971.02
2022-10-24T00:38:12.552Z,971.04
2022-10-24T00:39:12.793Z,971.02
2022-10-24T00:40:13.052Z,971.00
2022-10-24T00:41:13.293Z,971.02
2022-10-24T00:42:13.534Z,971.06
2022-10-24T00:43:13.775Z,971.04
2022-10-24T00:44:14.015Z,971.10
2022-10-24T00:45:15.077Z,971.13
2022-10-24T00:46:14.519Z,971.16
2022-10-24T00:47:14.775Z,971.20
2022-10-24T00:48:15.016Z,971.16
2022-10-24T00:49:15.268Z,971.19
2022-10-24T00:50:17.057Z,971.20
2022-10-24T00:51:15.746Z,971.25
2022-10-24T00:52:15.988Z,971.28
2022-10-24T00:53:16.230Z,971.24
2022-10-24T00:54:16.483Z,971.25
2022-10-24T00:55:16.718Z,971.24
2022-10-24T00:56:16.959Z,971.23
2022-10-24T00:57:17.208Z,971.24
2022-10-24T00:58:17.449Z,971.19
2022-10-24T00:59:17.686Z,971.21
2022-10-24T01:00:17.931Z,971.18
2022-10-24T01:01:18.239Z,971.15
2022-10-24T01:02:18.484Z,971.15
2022-10-24T01:03:18.721Z,971.14
2022-10-24T01:04:18.961Z,971.08
2022-10-24T01:05:20.822Z,971.08
2022-10-24T01:06:19.512Z,971.06
2022-10-24T01:07:19.752Z,971.08
2022-10-24T01:08:19.992Z,971.10
2022-10-24T01:09:20.234Z,971.09
2022-10-24T01:10:20.473Z,971.10
2022-10-24T01:11:20.722Z,971.05
2022-10-24T01:12:20.954Z,971.08
2022-10-24T01:13:21.194Z,971.03
2022-10-24T01:14:21.434Z,971.06
2022-10-24T01:15:22.495Z,971.08
2022-10-24T01:16:21.915Z,971.06
2022-10-24T01:17:22.155Z,971.02
2022-10-24T01:18:22.396Z,971.04
2022-10-24T01:19:22.637Z,971.05
2022-10-24T01:20:23.696Z,971.05
2022-10-24T01:21:23.121Z,971.09
2022-10-24T01:22:23.364Z,971.08
2022-10-24T01:23:23.597Z,971.09
2022-10-24T01:24:23.839Z,971.08
2022-10-24T01:25:24.136Z,971.11
2022-10-24T01:26:24.378Z,971.17
2022-10-24T01:27:24.621Z,971.16
2022-10-24T01:28:24.859Z,971.13
2022-10-24T01:29:25.109Z,971.18
2022-10-24T01:30:25.354Z,971.19
2022-10-24T01:31:25.592Z,971.24
2022-10-24T01:32:25.831Z,971.22
2022-10-24T01:33:26.073Z,971.21
2022-10-24T01:34:26.311Z,971.21
2022-10-24T01:35:28.007Z,971.20
2022-10-24T01:36:26.842Z,971.20
2022-10-24T01:37:27.083Z,971.22
2022-10-24T01:38:27.331Z,971.17
2022-10-24T01:39:27.570Z,971.20
2022-10-24T01:40:27.810Z,971.20
2022-10-24T01:41:28.052Z,971.20
2022-10-24T01:42:28.293Z,971.23
2022-10-24T01:43:28.530Z,971.24
2022-10-24T01:44:28.774Z,971.20
2022-10-24T01:45:29.824Z,971.24
2022-10-24T01:46:29.255Z,971.24
2022-10-24T01:47:29.494Z,971.27
2022-10-24T01:48:29.737Z,971.30
2022-10-24T01:49:29.984Z,971.26
2022-10-24T01:50:31.175Z,971.31
2022-10-24T01:51:30.488Z,971.27
2022-10-24T01:52:30.726Z,971.26
2022-10-24T01:53:30.966Z,971.27
2022-10-24T01:54:31.205Z,971.32
2022-10-24T01:55:31.448Z,971.32
2022-10-24T01:56:31.698Z,971.32
2022-10-24T01:57:31.945Z,971.32
2022-10-24T01:58:32.188Z,971.39
2022-10-24T01:59:32.427Z,971.38
2022-10-24T02:00:32.779Z,971.40
2022-10-24T02:01:32.980Z,971.37
2022-10-24T02:02:33.207Z,971.43
2022-10-24T02:03:33.441Z,971.40
2022-10-24T02:04:33.692Z,971.38
2022-10-24T02:05:34.952Z,971.32
2022-10-24T02:06:34.251Z,971.31
2022-10-24T02:07:34.499Z,971.33
2022-10-24T02:08:34.739Z,971.35
2022-10-24T02:09:34.985Z,971.32
2022-10-24T02:10:35.241Z,971.31
2022-10-24T02:11:35.483Z,971.30
2022-10-24T02:12:35.732Z,971.39
2022-10-24T02:13:35.965Z,971.39
2022-10-24T02:14:36.273Z,971.39
2022-10-24T02:15:37.143Z,971.35
2022-10-24T02:16:36.814Z,971.35
2022-10-24T02:17:37.059Z,971.30
2022-10-24T02:18:37.303Z,971.33
2022-10-24T02:19:37.545Z,971.30
2022-10-24T02:20:38.214Z,971.26
2022-10-24T02:21:38.140Z,971.22
2022-10-24T02:22:38.375Z,971.15
2022-10-24T02:23:38.618Z,971.17
2022-10-24T02:24:38.866Z,971.20
2022-10-24T02:25:39.147Z,971.20
2022-10-24T02:26:39.397Z,971.27
2022-10-24T02:27:39.641Z,971.25
2022-10-24T02:28:39.879Z,971.25
2022-10-24T02:29:40.128Z,971.25
2022-10-24T02:30:40.370Z,971.20
2022-10-24T02:31:40.609Z,971.22
2022-10-24T02:32:40.859Z,971.19
2022-10-24T02:33:41.099Z,971.17
2022-10-24T02:34:41.340Z,971.16
2022-10-24T02:35:41.940Z,971.09
2022-10-24T02:36:41.858Z,971.04
2022-10-24T02:37:42.296Z,970.99
2022-10-24T02:38:42.372Z,970.94
2022-10-24T02:39:42.613Z,970.91
2022-10-24T02:40:42.862Z,970.86
2022-10-24T02:41:43.102Z,970.89
2022-10-24T02:42:43.350Z,970.78
2022-10-24T02:43:43.583Z,970.76
2022-10-24T02:44:43.833Z,970.77
2022-10-24T02:45:44.143Z,970.75
2022-10-24T02:46:44.343Z,970.75
2022-10-24T02:47:44.783Z,970.77
2022-10-24T02:48:44.845Z,970.73
2022-10-24T02:49:45.095Z,970.76
2022-10-24T02:50:47.730Z,970.69
2022-10-24T02:51:45.678Z,970.69
2022-10-24T02:52:46.170Z,970.65
2022-10-24T02:53:46.246Z,970.62
2022-10-24T02:54:46.486Z,970.67
2022-10-24T02:55:46.735Z,970.69
2022-10-24T02:56:46.983Z,970.71
2022-10-24T02:57:47.217Z,970.70
2022-10-24T02:58:47.467Z,970.70
2022-10-24T02:59:47.708Z,970.68
2022-10-24T03:00:47.985Z,970.64
2022-10-24T03:01:48.265Z,970.64
2022-10-24T03:02:48.478Z,970.68
2022-10-24T03:03:48.719Z,970.72
2022-10-24T03:04:48.959Z,970.66
2022-10-24T03:05:49.199Z,970.67
2022-10-24T03:06:49.449Z,970.62
2022-10-24T03:07:49.699Z,970.57
2022-10-24T03:08:49.940Z,970.55
2022-10-24T03:09:50.180Z,970.57
2022-10-24T03:10:50.421Z,970.60
2022-10-24T03:11:50.663Z,970.56
2022-10-24T03:12:50.914Z,970.54
2022-10-24T03:13:51.182Z,970.48
2022-10-24T03:14:51.431Z,970.43
2022-10-24T03:15:51.678Z,970.42
2022-10-24T03:16:51.913Z,970.37
2022-10-24T03:17:52.162Z,970.35
2022-10-24T03:18:52.403Z,970.32
2022-10-24T03:19:52.644Z,970.33
2022-10-24T03:20:52.895Z,970.34
2022-10-24T03:21:53.135Z,970.35
2022-10-24T03:22:53.376Z,970.36
2022-10-24T03:23:53.671Z,970.38
2022-10-24T03:24:55.475Z,970.41
2022-10-24T03:25:54.175Z,970.39
2022-10-24T03:26:54.416Z,970.42
2022-10-24T03:27:54.671Z,970.40
2022-10-24T03:28:54.917Z,970.37
2022-10-24T03:29:55.167Z,970.39
2022-10-24T03:30:55.417Z,970.34
2022-10-24T03:31:55.719Z,970.34
2022-10-24T03:32:55.962Z,970.37
2022-10-24T03:33:56.199Z,970.38
2022-10-24T03:34:56.440Z,970.38
2022-10-24T03:35:58.300Z,970.38
2022-10-24T03:36:56.989Z,970.39
2022-10-24T03:37:57.229Z,970.35
2022-10-24T03:38:57.470Z,970.34
2022-10-24T03:39:57.712Z,970.33
2022-10-24T03:40:57.953Z,970.36
2022-10-24T03:41:58.204Z,970.37
2022-10-24T03:42:58.442Z,970.40
2022-10-24T03:43:58.691Z,970.41
2022-10-24T03:44:58.932Z,970.40
2022-10-24T03:45:59.993Z,970.35
2022-10-24T03:46:59.424Z,970.35
2022-10-24T03:47:59.667Z,970.27
2022-10-24T03:50:00.281Z,970.34
2022-10-24T03:51:02.045Z,970.32
2022-10-24T03:52:00.856Z,970.32
2022-10-24T03:53:01.098Z,970.29
2022-10-24T03:54:01.344Z,970.33
2022-10-24T03:55:01.583Z,970.29
2022-10-24T03:56:01.825Z,970.33
2022-10-24T03:57:02.067Z,970.34
2022-10-24T03:58:02.306Z,970.31
2022-10-24T03:59:02.547Z,970.29
2022-10-24T04:00:02.786Z,970.30
2022-10-24T04:01:03.184Z,970.31
2022-10-24T04:02:03.320Z,970.32
2022-10-24T04:03:03.557Z,970.30
2022-10-24T04:04:03.817Z,970.33
2022-10-24T04:05:04.058Z,970.34
2022-10-24T04:06:05.919Z,970.37
2022-10-24T04:07:04.608Z,970.40
2022-10-24T04:08:04.849Z,970.44
2022-10-24T04:09:05.100Z,970.40
2022-10-24T04:10:05.353Z,970.40
2022-10-24T04:11:05.601Z,970.38
2022-10-24T04:12:05.852Z,970.37
2022-10-24T04:13:06.101Z,970.32
2022-10-24T04:14:06.344Z,970.31
2022-10-24T04:15:06.600Z,970.33
2022-10-24T04:16:07.652Z,970.33
2022-10-24T04:17:07.077Z,970.31
2022-10-24T04:18:07.322Z,970.32
2022-10-24T04:19:07.562Z,970.29
2022-10-24T04:20:07.804Z,970.30
2022-10-24T04:21:08.904Z,970.28
2022-10-24T04:22:08.359Z,970.26
2022-10-24T04:23:08.625Z,970.24
2022-10-24T04:24:08.864Z,970.20
2022-10-24T04:25:09.104Z,970.19
2022-10-24T04:26:09.366Z,970.19
2022-10-24T04:27:09.605Z,970.17
2022-10-24T04:28:09.855Z,970.18
2022-10-24T04:29:10.096Z,970.18
2022-10-24T04:30:15.557Z,970.19
2022-10-24T04:31:11.567Z,970.19
2022-10-24T04:32:10.867Z,970.18
2022-10-24T04:33:11.107Z,970.17
2022-10-24T04:34:11.361Z,970.15
2022-10-24T04:35:11.605Z,970.15
2022-10-24T04:36:12.948Z,970.14
2022-10-24T04:37:12.120Z,970.14
2022-10-24T04:38:12.360Z,970.15
2022-10-24T04:39:12.599Z,970.16
2022-10-24T04:40:12.871Z,970.10
2022-10-24T04:41:13.127Z,970.08
2022-10-24T04:42:13.369Z,970.06
2022-10-24T04:43:13.611Z,970.04
2022-10-24T04:44:13.852Z,970.04
2022-10-24T04:45:14.093Z,970.04
2022-10-24T04:46:15.152Z,970.08
2022-10-24T04:47:14.636Z,970.04
2022-10-24T04:48:14.853Z,970.06
2022-10-24T04:49:15.093Z,970.04
2022-10-24T04:50:15.341Z,970.06
2022-10-24T04:51:18.646Z,970.00
2022-10-24T04:52:16.867Z,970.02
2022-10-24T04:53:16.164Z,970.04
2022-10-24T04:54:16.405Z,970.03
2022-10-24T04:55:16.655Z,970.01
2022-10-24T04:56:16.895Z,970.00
2022-10-24T04:57:17.137Z,969.93
2022-10-24T04:58:17.377Z,969.95
2022-10-24T04:59:17.617Z,969.96
2022-10-24T05:00:17.868Z,969.91
2022-10-24T05:01:18.136Z,969.90
2022-10-24T05:02:18.438Z,969.88
2022-10-24T05:03:18.687Z,969.84
2022-10-24T05:04:18.935Z,969.77
2022-10-24T05:05:19.168Z,969.79
2022-10-24T05:06:19.939Z,969.77
2022-10-24T05:07:19.738Z,969.76
2022-10-24T05:08:19.979Z,969.75
2022-10-24T05:09:20.219Z,969.75
2022-10-24T05:10:20.460Z,969.79
2022-10-24T05:11:21.217Z,969.77
2022-10-24T05:12:21.010Z,969.79
2022-10-24T05:13:21.251Z,969.80
2022-10-24T05:14:21.490Z,969.76
2022-10-24T05:15:21.731Z,969.79
2022-10-24T05:16:21.979Z,969.76
2022-10-24T05:17:22.221Z,969.79
2022-10-24T05:18:22.470Z,969.81
2022-10-24T05:19:22.703Z,969.84
2022-10-24T05:20:22.963Z,969.85
2022-10-24T05:21:23.255Z,969.83
2022-10-24T05:22:23.515Z,969.88
2022-10-24T05:23:23.754Z,969.86
2022-10-24T05:24:24.003Z,969.89
2022-10-24T05:25:24.242Z,969.93
2022-10-24T05:26:24.485Z,969.89
2022-10-24T05:27:24.801Z,969.82
2022-10-24T05:28:25.005Z,969.80
2022-10-24T05:29:25.247Z,969.76
2022-10-24T05:30:25.496Z,969.72
2022-10-24T05:31:25.815Z,969.67
2022-10-24T05:32:26.047Z,969.67
2022-10-24T05:33:26.287Z,969.67
2022-10-24T05:34:26.527Z,969.63
2022-10-24T05:35:26.779Z,969.66
2022-10-24T05:36:27.958Z,969.69
2022-10-24T05:37:27.286Z,969.63
2022-10-24T05:38:27.527Z,969.71
2022-10-24T05:39:27.769Z,969.73
2022-10-24T05:40:28.012Z,969.73
2022-10-24T05:41:28.270Z,969.73
2022-10-24T05:42:28.530Z,969.70
2022-10-24T05:43:28.760Z,969.72
2022-10-24T05:44:29.001Z,969.71
2022-10-24T05:45:29.270Z,969.68
2022-10-24T05:46:30.145Z,969.70
2022-10-24T05:47:29.820Z,969.73
2022-10-24T05:48:30.063Z,969.70
2022-10-24T05:49:30.309Z,969.72
2022-10-24T05:50:30.553Z,969.69
2022-10-24T05:51:31.633Z,969.69
2022-10-24T05:52:31.063Z,969.70
2022-10-24T05:53:31.333Z,969.73
2022-10-24T05:54:42.467Z,969.71
2022-10-24T05:55:32.804Z,969.72
2022-10-24T05:56:32.944Z,969.75
2022-10-24T05:57:32.364Z,969.73
2022-10-24T05:58:32.664Z,969.76
2022-10-24T05:59:32.903Z,969.77
2022-10-24T06:00:33.162Z,969.80
2022-10-24T06:01:33.504Z,969.83
2022-10-24T06:02:33.727Z,969.88
2022-10-24T06:03:33.945Z,969.85
2022-10-24T06:04:34.218Z,969.89
2022-10-24T06:05:34.458Z,969.90
2022-10-24T06:06:34.717Z,969.93
2022-10-24T06:07:34.958Z,969.96
2022-10-24T06:08:35.198Z,969.98
2022-10-24T06:09:35.449Z,970.04
2022-10-24T06:10:35.697Z,970.05
2022-10-24T06:11:35.948Z,970.11
2022-10-24T06:12:36.193Z,970.12
2022-10-24T06:13:36.473Z,970.14
2022-10-24T06:14:36.679Z,970.15
2022-10-24T06:15:36.921Z,970.15
2022-10-24T06:16:37.181Z,970.11
2022-10-24T06:17:37.432Z,970.15
2022-10-24T06:18:37.681Z,970.15
2022-10-24T06:19:37.960Z,970.20
2022-10-24T06:20:38.212Z,970.21
2022-10-24T06:21:38.464Z,970.21
2022-10-24T06:22:38.722Z,970.21
2022-10-24T06:23:38.974Z,970.24
2022-10-24T06:24:39.225Z,970.21
2022-10-24T06:25:39.474Z,970.25
2022-10-24T06:26:39.734Z,970.25
2022-10-24T06:27:39.985Z,970.27
2022-10-24T06:28:40.235Z,970.29
2022-10-24T06:29:40.536Z,970.33
2022-10-24T06:30:40.807Z,970.33
2022-10-24T06:31:41.065Z,970.32
2022-10-24T06:32:43.737Z,970.34
2022-10-24T06:33:41.646Z,970.35
2022-10-24T06:34:41.907Z,970.36
2022-10-24T06:35:42.167Z,970.37
2022-10-24T06:36:42.431Z,970.40
2022-10-24T06:37:45.734Z,970.40
2022-10-24T06:38:43.896Z,970.46
2022-10-24T06:39:43.199Z,970.47
2022-10-24T06:40:43.451Z,970.49
2022-10-24T06:41:43.698Z,970.52
2022-10-24T06:42:43.939Z,970.51
2022-10-24T06:43:44.210Z,970.51
2022-10-24T06:44:44.461Z,970.50
2022-10-24T06:45:44.713Z,970.56
2022-10-24T06:46:45.160Z,970.55
2022-10-24T06:47:45.432Z,970.59
2022-10-24T06:48:45.581Z,970.58
2022-10-24T06:49:45.821Z,970.57
2022-10-24T06:50:46.082Z,970.60
2022-10-24T06:51:46.460Z,970.60
2022-10-24T06:52:46.662Z,970.59
2022-10-24T06:53:46.912Z,970.56
2022-10-24T06:54:47.153Z,970.55
2022-10-24T06:55:47.404Z,970.55
2022-10-24T06:56:47.645Z,970.60
2022-10-24T06:57:48.078Z,970.62
2022-10-24T06:58:48.192Z,970.69
2022-10-24T06:59:48.875Z,970.67
2022-10-24T07:00:48.711Z,970.71
2022-10-24T07:01:49.089Z,970.75
2022-10-24T07:02:49.248Z,970.69
2022-10-24T07:03:49.486Z,970.74
2022-10-24T07:04:49.738Z,970.78
2022-10-24T07:05:49.977Z,970.86
2022-10-24T07:06:50.238Z,970.94
2022-10-24T07:07:50.487Z,970.86
2022-10-24T07:08:50.736Z,970.87
2022-10-24T07:09:50.977Z,970.87
2022-10-24T07:10:51.231Z,970.78
2022-10-24T07:11:51.509Z,970.79
2022-10-24T07:12:51.759Z,970.74
2022-10-24T07:13:54.228Z,970.69
2022-10-24T07:14:53.249Z,970.68
2022-10-24T07:15:52.551Z,970.71
2022-10-24T07:16:52.836Z,970.72
2022-10-24T07:17:53.080Z,970.78
2022-10-24T07:18:53.331Z,970.82
2022-10-24T07:19:53.591Z,970.83
2022-10-24T07:20:53.833Z,970.78
2022-10-24T07:21:54.102Z,970.90
2022-10-24T07:22:54.355Z,970.80
2022-10-24T07:23:54.593Z,970.77
2022-10-24T07:24:54.873Z,970.73
2022-10-24T07:25:55.122Z,970.76
2022-10-24T07:26:55.364Z,970.77
2022-10-24T07:27:55.613Z,970.77
2022-10-24T07:28:55.891Z,970.74
2022-10-24T07:29:56.154Z,970.74
2022-10-24T07:30:56.406Z,970.67
2022-10-24T07:31:56.645Z,970.65
2022-10-24T07:32:56.894Z,970.61
2022-10-24T07:33:57.156Z,970.64
2022-10-24T07:34:57.416Z,970.68
2022-10-24T07:35:57.736Z,970.74
2022-10-24T07:36:57.975Z,970.75
2022-10-24T07:37:58.216Z,970.79
2022-10-24T07:38:58.508Z,970.79
2022-10-24T07:39:58.757Z,970.84
2022-10-24T07:40:59.209Z,970.80
2022-10-24T07:41:59.299Z,970.78
2022-10-24T07:42:59.559Z,970.79
2022-10-24T07:43:59.798Z,970.83
2022-10-24T07:45:00.089Z,970.75
2022-10-24T07:47:00.601Z,970.75
2022-10-24T07:48:00.878Z,970.79
2022-10-24T07:49:01.140Z,970.80
2022-10-24T07:50:01.408Z,970.77
2022-10-24T07:51:01.674Z,970.79
2022-10-24T07:52:01.932Z,970.77
2022-10-24T07:53:02.231Z,970.77
2022-10-24T07:54:02.522Z,970.80
2022-10-24T07:55:02.817Z,970.76
2022-10-24T07:56:03.081Z,970.72
2022-10-24T07:57:03.342Z,970.72
2022-10-24T07:58:03.603Z,970.65
2022-10-24T07:59:09.123Z,970.69
2022-10-24T08:00:05.147Z,970.64
2022-10-24T08:01:04.516Z,970.64
2022-10-24T08:02:04.815Z,970.66
2022-10-24T08:03:05.054Z,970.64
2022-10-24T08:04:05.357Z,970.62
2022-10-24T08:05:05.616Z,970.61
2022-10-24T08:06:05.894Z,970.57
2022-10-24T08:07:06.147Z,970.55
2022-10-24T08:08:36.224Z,970.50
2022-10-24T08:09:07.659Z,970.49
2022-10-24T08:10:06.990Z,970.46
2022-10-24T08:11:07.248Z,970.37
2022-10-24T08:12:07.507Z,970.39
2022-10-24T08:13:11.529Z,970.37
2022-10-24T08:14:09.011Z,970.38
2022-10-24T08:15:08.328Z,970.37
2022-10-24T08:16:08.588Z,970.34
2022-10-24T08:17:08.850Z,970.30
2022-10-24T08:18:09.120Z,970.28
2022-10-24T08:19:09.380Z,970.20
2022-10-24T08:20:09.641Z,970.24
2022-10-24T08:21:09.909Z,970.21
2022-10-24T08:22:10.171Z,970.16
2022-10-24T08:23:10.421Z,970.15
2022-10-24T08:24:10.681Z,970.16
2022-10-24T08:25:10.932Z,970.16
2022-10-24T08:26:11.212Z,970.18
2022-10-24T08:27:11.478Z,970.10
2022-10-24T08:28:11.782Z,970.07
2022-10-24T08:29:12.033Z,970.08
2022-10-24T08:30:12.294Z,970.07
2022-10-24T08:31:12.557Z,970.04
2022-10-24T08:32:12.814Z,970.04
2022-10-24T08:33:17.344Z,969.99
2022-10-24T08:34:14.335Z,969.95
2022-10-24T08:35:13.656Z,969.94
2022-10-24T08:36:13.915Z,969.98
2022-10-24T08:37:14.166Z,969.93
2022-10-24T08:38:14.452Z,969.97
2022-10-24T08:39:14.676Z,969.93
2022-10-24T08:40:15.007Z,969.91
2022-10-24T08:41:15.228Z,969.94
2022-10-24T08:42:15.487Z,969.96
2022-10-24T08:43:15.758Z,969.91
2022-10-24T08:44:16.028Z,969.90
2022-10-24T08:45:16.318Z,969.88
2022-10-24T08:46:16.589Z,969.85
2022-10-24T08:47:16.860Z,969.87
2022-10-24T08:48:17.129Z,969.87
2022-10-24T08:49:17.399Z,969.90
2022-10-24T08:50:17.680Z,969.94
2022-10-24T08:51:17.961Z,969.96
2022-10-24T08:52:18.238Z,970.01
2022-10-24T08:53:18.511Z,970.03
2022-10-24T08:54:18.789Z,970.05
2022-10-24T08:55:44.494Z,970.05
2022-10-24T08:56:20.272Z,970.09
2022-10-24T08:57:19.670Z,970.06
2022-10-24T08:58:19.922Z,970.04
2022-10-24T08:59:20.182Z,970.01
2022-10-24T09:00:20.540Z,969.95
2022-10-24T09:01:20.852Z,969.89
2022-10-24T09:02:21.116Z,969.80
2022-10-24T09:03:26.598Z,969.81
2022-10-24T09:04:22.514Z,969.73
2022-10-24T09:05:21.850Z,969.72
2022-10-24T09:06:22.145Z,969.74
2022-10-24T09:07:22.515Z,969.80
2022-10-24T09:08:23.739Z,969.79
2022-10-24T09:09:23.017Z,969.80
2022-10-24T09:10:23.276Z,969.71
2022-10-24T09:11:23.549Z,969.72
2022-10-24T09:12:23.867Z,969.70
2022-10-24T09:13:24.172Z,969.68
2022-10-24T09:14:24.429Z,969.68
2022-10-24T09:15:24.696Z,969.72
2022-10-24T09:16:24.948Z,969.71
2022-10-24T09:17:25.219Z,969.75
2022-10-24T09:18:25.477Z,969.76
2022-10-24T09:19:25.739Z,969.76
2022-10-24T09:20:26.019Z,969.75
2022-10-24T09:21:26.292Z,969.77
2022-10-24T09:22:26.570Z,969.81
2022-10-24T09:23:26.828Z,969.84
2022-10-24T09:24:27.112Z,969.85
2022-10-24T09:25:27.370Z,969.88
2022-10-24T09:26:27.640Z,969.89
2022-10-24T09:27:27.907Z,969.87
2022-10-24T09:28:28.171Z,969.85
2022-10-24T09:29:28.432Z,969.86
2022-10-24T09:30:31.627Z,969.85
2022-10-24T09:31:28.944Z,969.86
2022-10-24T09:32:29.203Z,969.89
2022-10-24T09:33:29.473Z,969.89
2022-10-24T09:34:29.723Z,969.87
2022-10-24T09:35:29.993Z,969.86
2022-10-24T09:36:30.255Z,969.86
2022-10-24T09:37:34.252Z,969.86
2022-10-24T09:38:31.779Z,969.83
2022-10-24T09:39:31.085Z,969.83
2022-10-24T09:40:31.345Z,969.82
2022-10-24T09:41:31.615Z,969.81
2022-10-24T09:42:31.896Z,969.81
2022-10-24T09:43:32.148Z,969.86
2022-10-24T09:44:32.406Z,969.85
2022-10-24T09:45:32.667Z,969.95
2022-10-24T09:46:32.939Z,970.00
2022-10-24T09:47:33.218Z,970.00
2022-10-24T09:48:33.488Z,969.96
2022-10-24T09:49:33.768Z,969.91
2022-10-24T09:50:34.039Z,969.88
2022-10-24T09:51:34.299Z,969.87
2022-10-24T09:52:34.599Z,969.81
2022-10-24T09:53:34.850Z,969.79
2022-10-24T09:54:35.143Z,969.77
2022-10-24T09:55:35.400Z,969.75
2022-10-24T09:56:35.658Z,969.78
2022-10-24T09:57:35.931Z,969.77
2022-10-24T09:58:36.191Z,969.77
2022-10-24T09:59:36.454Z,969.80
2022-10-24T10:00:36.722Z,969.79
2022-10-24T10:01:37.050Z,969.86
2022-10-24T10:02:37.334Z,969.86
2022-10-24T10:03:37.622Z,969.89
2022-10-24T10:04:37.901Z,969.97
2022-10-24T10:05:38.164Z,969.95
2022-10-24T10:06:38.422Z,970.00
2022-10-24T10:07:38.675Z,970.06
2022-10-24T10:08:38.942Z,970.11
2022-10-24T10:09:39.195Z,970.07
2022-10-24T10:10:39.464Z,970.09
2022-10-24T10:11:40.750Z,970.10
2022-10-24T10:12:40.956Z,970.13
2022-10-24T10:13:40.277Z,970.10
2022-10-24T10:14:40.587Z,970.14
2022-10-24T10:15:40.847Z,970.08
2022-10-24T10:16:41.107Z,970.11
2022-10-24T10:17:41.368Z,970.11
2022-10-24T10:18:41.638Z,970.10
2022-10-24T10:19:41.895Z,970.10
2022-10-24T10:20:42.158Z,970.10
2022-10-24T10:21:42.481Z,970.13
2022-10-24T10:22:42.650Z,970.14
2022-10-24T10:23:42.909Z,970.14
2022-10-24T10:24:43.170Z,970.12
2022-10-24T10:25:43.430Z,970.11
2022-10-24T10:26:43.696Z,970.09
2022-10-24T10:27:44.375Z,970.06
2022-10-24T10:28:44.241Z,970.02
2022-10-24T10:29:44.495Z,970.00
2022-10-24T10:30:44.782Z,969.99
2022-10-24T10:31:45.039Z,969.92
2022-10-24T10:32:45.303Z,969.94
2022-10-24T10:33:45.599Z,969.95
2022-10-24T10:34:45.834Z,969.90
2022-10-24T10:35:46.091Z,969.90
2022-10-24T10:36:46.355Z,969.84
2022-10-24T10:37:46.986Z,969.84
2022-10-24T10:38:46.873Z,969.83
2022-10-24T10:39:47.154Z,969.82
2022-10-24T10:40:47.415Z,969.82
2022-10-24T10:41:47.690Z,969.88
2022-10-24T10:42:48.027Z,969.84
2022-10-24T10:43:48.173Z,969.89
2022-10-24T10:44:48.434Z,969.88
2022-10-24T10:45:48.686Z,969.87
2022-10-24T10:46:48.945Z,969.88
2022-10-24T10:47:49.196Z,969.89
2022-10-24T10:48:49.457Z,969.85
2022-10-24T10:49:49.717Z,969.88
2022-10-24T10:50:49.978Z,969.91
2022-10-24T10:51:50.237Z,969.94
2022-10-24T10:52:50.496Z,969.93
2022-10-24T10:53:50.748Z,969.92
2022-10-24T10:54:50.998Z,969.94
2022-10-24T10:55:51.259Z,970.02
2022-10-24T10:56:51.521Z,970.06
2022-10-24T10:57:51.780Z,970.13
2022-10-24T10:58:52.041Z,970.10
2022-10-24T10:59:52.310Z,970.12
2022-10-24T11:00:52.561Z,970.09
2022-10-24T11:01:52.905Z,970.07
2022-10-24T11:02:53.517Z,970.14
2022-10-24T11:03:53.284Z,970.15
2022-10-24T11:04:53.542Z,970.14
2022-10-24T11:05:53.800Z,970.14
2022-10-24T11:06:54.106Z,970.11
2022-10-24T11:07:54.373Z,970.12
2022-10-24T11:08:54.634Z,970.10
2022-10-24T11:09:54.898Z,970.10
2022-10-24T11:10:55.173Z,970.10
2022-10-24T11:11:55.434Z,970.12
2022-10-24T11:12:55.695Z,970.10
2022-10-24T11:13:55.954Z,970.10
2022-10-24T11:14:56.235Z,970.07
2022-10-24T11:15:56.497Z,970.12
2022-10-24T11:16:56.756Z,970.10
2022-10-24T11:17:57.016Z,970.10
2022-10-24T11:18:57.276Z,970.12
2022-10-24T11:19:57.546Z,970.08
2022-10-24T11:20:57.818Z,970.01
2022-10-24T11:21:58.088Z,970.00
2022-10-24T11:22:58.381Z,969.96
2022-10-24T11:23:58.628Z,970.01
2022-10-24T11:24:58.881Z,969.96
2022-10-24T11:25:59.142Z,969.92
2022-10-24T11:26:59.409Z,969.89
2022-10-24T11:27:59.687Z,969.83
2022-10-24T11:28:59.950Z,969.85
2022-10-24T11:30:00.210Z,969.82
2022-10-24T11:31:00.497Z,969.85
2022-10-24T11:32:00.815Z,969.87
2022-10-24T11:33:01.061Z,969.86
2022-10-24T11:34:01.311Z,969.87
2022-10-24T11:35:01.572Z,969.86
2022-10-24T11:36:01.834Z,969.87
2022-10-24T11:37:02.100Z,969.83
2022-10-24T11:38:02.362Z,969.84
2022-10-24T11:39:02.613Z,969.82
2022-10-24T11:40:02.882Z,969.83
2022-10-24T11:41:03.154Z,969.78
2022-10-24T11:42:03.414Z,969.82
2022-10-24T11:43:03.655Z,969.79
2022-10-24T11:44:03.975Z,969.83
2022-10-24T11:45:04.252Z,969.84
2022-10-24T11:46:04.520Z,969.81
2022-10-24T11:47:06.603Z,969.79
2022-10-24T11:48:05.046Z,969.74
2022-10-24T11:49:05.387Z,969.77
2022-10-24T11:50:05.625Z,969.75
2022-10-24T11:51:05.907Z,969.80
2022-10-24T11:52:06.156Z,969.75
2022-10-24T11:53:06.427Z,969.72
2022-10-24T11:54:06.687Z,969.74
2022-10-24T11:55:06.949Z,969.68
2022-10-24T11:56:07.210Z,969.78
2022-10-24T11:57:07.533Z,969.75
2022-10-24T11:58:07.770Z,969.72
2022-10-24T11:59:08.053Z,969.74
2022-10-24T12:00:08.321Z,969.72
2022-10-24T12:01:08.599Z,969.74
2022-10-24T12:02:08.857Z,969.71
2022-10-24T12:03:09.120Z,969.74
2022-10-24T12:04:09.370Z,969.76
2022-10-24T12:05:09.651Z,969.77
2022-10-24T12:06:09.905Z,969.80
2022-10-24T12:07:10.161Z,969.76
2022-10-24T12:08:10.410Z,969.82
2022-10-24T12:09:10.652Z,969.89
2022-10-24T12:10:10.933Z,969.87
2022-10-24T12:11:11.152Z,969.86
2022-10-24T12:12:11.394Z,969.89
2022-10-24T12:13:11.654Z,969.92
2022-10-24T12:14:11.915Z,969.91
2022-10-24T12:15:12.186Z,969.89
2022-10-24T12:16:12.443Z,969.90
2022-10-24T12:17:12.693Z,969.90
2022-10-24T12:18:12.931Z,969.91
2022-10-24T12:19:13.195Z,969.95
2022-10-24T12:20:13.446Z,969.95
2022-10-24T12:21:13.678Z,969.92
2022-10-24T12:22:13.963Z,969.97
2022-10-24T12:23:14.227Z,969.97
2022-10-24T12:24:14.484Z,970.03
2022-10-24T12:25:14.725Z,970.02
2022-10-24T12:26:14.966Z,970.03
2022-10-24T12:27:15.208Z,970.12
2022-10-24T12:28:15.459Z,970.17
2022-10-24T12:29:15.699Z,970.19
2022-10-24T12:30:15.949Z,970.22
2022-10-24T12:31:16.186Z,970.24
2022-10-24T12:32:16.430Z,970.25
2022-10-24T12:33:16.700Z,970.25
2022-10-24T12:34:16.963Z,970.25